sensor_id;sensor_type;location;lat;lon;timestamp;P1;durP1;ratioP1;P2;durP2;ratioP2
75890;SDS011;64571;47.512;19.054;2023-06-24T00:00:13;10.30;;;5.93;;
75890;SDS011;64571;47.512;19.054;2023-06-24T00:03:17;10.27;;;5.60;;
75890;SDS011;64571;47.512;19.054;2023-06-24T00:06:20;10.38;;;5.75;;
75890;SDS011;64571;47.512;19.054;2023-06-24T00:09:25;9.18;;;5.60;;
75890;SDS011;64571;47.512;19.054;2023-06-24T00:12:31;9.10;;;5.53;;
75890;SDS011;64571;47.512;19.054;2023-06-24T00:15:35;9.43;;;5.77;;
75890;SDS011;64571;47.512;19.054;2023-06-24T00:18:37;9.48;;;5.43;;
75890;SDS011;64571;47.512;19.054;2023-06-24T00:21:43;9.02;;;5.80;;
75890;SDS011;64571;47.512;19.054;2023-06-24T00:24:46;9.10;;;5.05;;
75890;SDS011;64571;47.512;19.054;2023-06-24T00:27:50;10.30;;;5.47;;
75890;SDS011;64571;47.512;19.054;2023-06-24T00:30:53;9.20;;;5.30;;
75890;SDS011;64571;47.512;19.054;2023-06-24T00:33:56;9.18;;;5.20;;
75890;SDS011;64571;47.512;19.054;2023-06-24T00:36:58;6.97;;;3.95;;
75890;SDS011;64571;47.512;19.054;2023-06-24T00:40:02;9.30;;;4.20;;
75890;SDS011;64571;47.512;19.054;2023-06-24T00:43:05;7.32;;;4.50;;
75890;SDS011;64571;47.512;19.054;2023-06-24T00:46:08;6.60;;;4.03;;
75890;SDS011;64571;47.512;19.054;2023-06-24T00:49:11;8.18;;;4.22;;
75890;SDS011;64571;47.512;19.054;2023-06-24T00:52:16;8.35;;;4.30;;
75890;SDS011;64571;47.512;19.054;2023-06-24T00:55:18;9.02;;;4.20;;
75890;SDS011;64571;47.512;19.054;2023-06-24T00:58:24;8.13;;;4.30;;
75890;SDS011;64571;47.512;19.054;2023-06-24T01:01:28;9.43;;;5.27;;
75890;SDS011;64571;47.512;19.054;2023-06-24T01:04:38;8.40;;;4.75;;
75890;SDS011;64571;47.512;19.054;2023-06-24T01:07:41;8.10;;;4.70;;
75890;SDS011;64571;47.512;19.054;2023-06-24T01:10:47;9.10;;;4.45;;
75890;SDS011;64571;47.512;19.054;2023-06-24T01:13:52;9.43;;;4.32;;
75890;SDS011;64571;47.512;19.054;2023-06-24T01:33:44;8.40;;;3.80;;
75890;SDS011;64571;47.512;19.054;2023-06-24T01:37:03;7.43;;;3.78;;
75890;SDS011;64571;47.512;19.054;2023-06-24T01:43:14;7.10;;;3.40;;
75890;SDS011;64571;47.512;19.054;2023-06-24T01:46:22;8.93;;;3.83;;
75890;SDS011;64571;47.512;19.054;2023-06-24T01:49:28;6.83;;;3.83;;
75890;SDS011;64571;47.512;19.054;2023-06-24T01:52:33;7.28;;;3.55;;
75890;SDS011;64571;47.512;19.054;2023-06-24T01:55:37;6.80;;;3.70;;
75890;SDS011;64571;47.512;19.054;2023-06-24T01:58:43;6.60;;;3.55;;
75890;SDS011;64571;47.512;19.054;2023-06-24T02:01:48;7.43;;;3.55;;
75890;SDS011;64571;47.512;19.054;2023-06-24T02:04:53;7.20;;;3.70;;
75890;SDS011;64571;47.512;19.054;2023-06-24T02:07:57;6.22;;;3.40;;
75890;SDS011;64571;47.512;19.054;2023-06-24T02:11:02;6.45;;;3.10;;
75890;SDS011;64571;47.512;19.054;2023-06-24T02:14:06;6.72;;;3.67;;
75890;SDS011;64571;47.512;19.054;2023-06-24T02:17:12;7.00;;;3.42;;
75890;SDS011;64571;47.512;19.054;2023-06-24T02:20:16;7.93;;;3.20;;
75890;SDS011;64571;47.512;19.054;2023-06-24T02:23:21;6.43;;;3.03;;
75890;SDS011;64571;47.512;19.054;2023-06-24T02:26:25;6.40;;;3.08;;
75890;SDS011;64571;47.512;19.054;2023-06-24T02:29:28;7.37;;;3.58;;
75890;SDS011;64571;47.512;19.054;2023-06-24T02:32:32;8.35;;;3.60;;
75890;SDS011;64571;47.512;19.054;2023-06-24T02:35:34;7.77;;;3.30;;
75890;SDS011;64571;47.512;19.054;2023-06-24T02:38:37;8.90;;;3.35;;
75890;SDS011;64571;47.512;19.054;2023-06-24T02:41:40;6.57;;;3.00;;
75890;SDS011;64571;47.512;19.054;2023-06-24T02:44:43;7.15;;;3.05;;
75890;SDS011;64571;47.512;19.054;2023-06-24T02:47:46;7.25;;;3.17;;
75890;SDS011;64571;47.512;19.054;2023-06-24T02:50:50;6.87;;;3.50;;
75890;SDS011;64571;47.512;19.054;2023-06-24T02:53:53;6.72;;;3.05;;
75890;SDS011;64571;47.512;19.054;2023-06-24T02:56:58;7.95;;;2.78;;
75890;SDS011;64571;47.512;19.054;2023-06-24T03:00:04;6.10;;;3.08;;
75890;SDS011;64571;47.512;19.054;2023-06-24T03:03:13;6.55;;;3.35;;
75890;SDS011;64571;47.512;19.054;2023-06-24T03:06:18;6.67;;;3.17;;
75890;SDS011;64571;47.512;19.054;2023-06-24T03:09:21;9.48;;;2.92;;
75890;SDS011;64571;47.512;19.054;2023-06-24T03:12:25;5.93;;;2.97;;
75890;SDS011;64571;47.512;19.054;2023-06-24T03:15:27;6.22;;;2.95;;
75890;SDS011;64571;47.512;19.054;2023-06-24T03:18:30;5.28;;;2.70;;
75890;SDS011;64571;47.512;19.054;2023-06-24T03:21:33;5.60;;;2.97;;
75890;SDS011;64571;47.512;19.054;2023-06-24T03:24:37;6.62;;;3.33;;
75890;SDS011;64571;47.512;19.054;2023-06-24T03:27:40;6.43;;;3.28;;
75890;SDS011;64571;47.512;19.054;2023-06-24T03:30:43;5.97;;;2.90;;
75890;SDS011;64571;47.512;19.054;2023-06-24T03:33:46;5.80;;;2.60;;
75890;SDS011;64571;47.512;19.054;2023-06-24T03:36:49;6.10;;;3.07;;
75890;SDS011;64571;47.512;19.054;2023-06-24T03:39:52;6.53;;;2.67;;
75890;SDS011;64571;47.512;19.054;2023-06-24T03:42:55;7.05;;;2.70;;
75890;SDS011;64571;47.512;19.054;2023-06-24T03:45:58;5.20;;;2.45;;
75890;SDS011;64571;47.512;19.054;2023-06-24T03:49:02;6.72;;;2.97;;
75890;SDS011;64571;47.512;19.054;2023-06-24T03:52:05;6.07;;;2.50;;
75890;SDS011;64571;47.512;19.054;2023-06-24T03:55:11;6.70;;;2.10;;
75890;SDS011;64571;47.512;19.054;2023-06-24T03:58:13;4.85;;;2.10;;
75890;SDS011;64571;47.512;19.054;2023-06-24T04:01:19;9.55;;;2.42;;
75890;SDS011;64571;47.512;19.054;2023-06-24T04:04:21;6.18;;;2.47;;
75890;SDS011;64571;47.512;19.054;2023-06-24T04:07:25;6.87;;;2.73;;
75890;SDS011;64571;47.512;19.054;2023-06-24T04:10:31;7.30;;;2.55;;
75890;SDS011;64571;47.512;19.054;2023-06-24T04:13:34;5.40;;;2.45;;
75890;SDS011;64571;47.512;19.054;2023-06-24T04:16:37;4.62;;;2.28;;
75890;SDS011;64571;47.512;19.054;2023-06-24T04:19:39;5.53;;;2.40;;
75890;SDS011;64571;47.512;19.054;2023-06-24T04:22:43;6.37;;;1.97;;
75890;SDS011;64571;47.512;19.054;2023-06-24T04:25:45;5.03;;;2.33;;
75890;SDS011;64571;47.512;19.054;2023-06-24T04:28:48;6.65;;;1.75;;
75890;SDS011;64571;47.512;19.054;2023-06-24T04:31:51;6.40;;;2.03;;
75890;SDS011;64571;47.512;19.054;2023-06-24T04:34:53;6.30;;;1.83;;
75890;SDS011;64571;47.512;19.054;2023-06-24T04:37:56;3.77;;;1.33;;
75890;SDS011;64571;47.512;19.054;2023-06-24T04:40:59;3.75;;;1.30;;
75890;SDS011;64571;47.512;19.054;2023-06-24T04:44:02;3.92;;;1.48;;
75890;SDS011;64571;47.512;19.054;2023-06-24T04:47:06;3.92;;;1.60;;
75890;SDS011;64571;47.512;19.054;2023-06-24T04:50:08;4.95;;;1.40;;
75890;SDS011;64571;47.512;19.054;2023-06-24T04:53:14;3.87;;;1.40;;
75890;SDS011;64571;47.512;19.054;2023-06-24T04:56:17;5.90;;;1.80;;
75890;SDS011;64571;47.512;19.054;2023-06-24T04:59:19;5.20;;;1.25;;
75890;SDS011;64571;47.512;19.054;2023-06-24T05:02:22;5.45;;;1.10;;
75890;SDS011;64571;47.512;19.054;2023-06-24T05:05:25;8.00;;;1.95;;
75890;SDS011;64571;47.512;19.054;2023-06-24T05:08:28;5.93;;;1.30;;
75890;SDS011;64571;47.512;19.054;2023-06-24T05:11:30;4.55;;;1.30;;
75890;SDS011;64571;47.512;19.054;2023-06-24T05:14:36;4.30;;;1.17;;
75890;SDS011;64571;47.512;19.054;2023-06-24T05:17:39;4.07;;;1.60;;
75890;SDS011;64571;47.512;19.054;2023-06-24T05:20:42;3.50;;;1.30;;
75890;SDS011;64571;47.512;19.054;2023-06-24T05:23:45;4.00;;;1.27;;
75890;SDS011;64571;47.512;19.054;2023-06-24T05:26:48;6.20;;;1.42;;
75890;SDS011;64571;47.512;19.054;2023-06-24T05:29:52;3.40;;;1.27;;
75890;SDS011;64571;47.512;19.054;2023-06-24T05:32:54;3.95;;;1.40;;
75890;SDS011;64571;47.512;19.054;2023-06-24T05:35:57;3.53;;;1.23;;
75890;SDS011;64571;47.512;19.054;2023-06-24T05:38:59;5.00;;;1.10;;
75890;SDS011;64571;47.512;19.054;2023-06-24T05:42:03;5.32;;;1.30;;
75890;SDS011;64571;47.512;19.054;2023-06-24T05:45:06;6.00;;;1.50;;
75890;SDS011;64571;47.512;19.054;2023-06-24T05:48:09;3.35;;;1.15;;
75890;SDS011;64571;47.512;19.054;2023-06-24T05:51:12;3.67;;;1.30;;
75890;SDS011;64571;47.512;19.054;2023-06-24T05:54:14;5.70;;;1.67;;
75890;SDS011;64571;47.512;19.054;2023-06-24T05:57:17;4.28;;;1.48;;
75890;SDS011;64571;47.512;19.054;2023-06-24T06:00:20;3.95;;;1.35;;
75890;SDS011;64571;47.512;19.054;2023-06-24T06:03:22;5.10;;;1.30;;
75890;SDS011;64571;47.512;19.054;2023-06-24T06:06:25;7.03;;;1.60;;
75890;SDS011;64571;47.512;19.054;2023-06-24T06:09:28;5.27;;;1.30;;
75890;SDS011;64571;47.512;19.054;2023-06-24T06:12:30;4.68;;;1.10;;
75890;SDS011;64571;47.512;19.054;2023-06-24T06:15:33;3.85;;;1.40;;
75890;SDS011;64571;47.512;19.054;2023-06-24T06:18:36;4.62;;;1.62;;
75890;SDS011;64571;47.512;19.054;2023-06-24T06:21:38;3.92;;;1.40;;
75890;SDS011;64571;47.512;19.054;2023-06-24T06:24:41;4.97;;;1.43;;
75890;SDS011;64571;47.512;19.054;2023-06-24T06:27:43;4.05;;;1.50;;
75890;SDS011;64571;47.512;19.054;2023-06-24T06:30:46;4.47;;;1.30;;
75890;SDS011;64571;47.512;19.054;2023-06-24T06:33:48;4.65;;;1.40;;
75890;SDS011;64571;47.512;19.054;2023-06-24T06:36:51;3.30;;;1.25;;
75890;SDS011;64571;47.512;19.054;2023-06-24T06:39:54;3.80;;;1.73;;
75890;SDS011;64571;47.512;19.054;2023-06-24T06:42:56;4.95;;;1.35;;
75890;SDS011;64571;47.512;19.054;2023-06-24T06:45:59;4.12;;;1.70;;
75890;SDS011;64571;47.512;19.054;2023-06-24T06:49:01;3.87;;;1.40;;
75890;SDS011;64571;47.512;19.054;2023-06-24T06:52:05;5.18;;;1.90;;
75890;SDS011;64571;47.512;19.054;2023-06-24T06:55:07;4.80;;;2.07;;
75890;SDS011;64571;47.512;19.054;2023-06-24T06:58:11;6.53;;;1.83;;
75890;SDS011;64571;47.512;19.054;2023-06-24T07:01:13;3.60;;;1.45;;
75890;SDS011;64571;47.512;19.054;2023-06-24T07:04:16;5.95;;;1.50;;
75890;SDS011;64571;47.512;19.054;2023-06-24T07:07:19;4.05;;;1.73;;
75890;SDS011;64571;47.512;19.054;2023-06-24T07:10:22;6.07;;;1.97;;
75890;SDS011;64571;47.512;19.054;2023-06-24T07:13:24;9.05;;;2.00;;
75890;SDS011;64571;47.512;19.054;2023-06-24T07:16:27;5.50;;;1.77;;
75890;SDS011;64571;47.512;19.054;2023-06-24T07:19:29;5.35;;;1.95;;
75890;SDS011;64571;47.512;19.054;2023-06-24T07:22:32;4.62;;;1.80;;
75890;SDS011;64571;47.512;19.054;2023-06-24T07:25:34;4.00;;;1.50;;
75890;SDS011;64571;47.512;19.054;2023-06-24T07:28:38;6.40;;;1.85;;
75890;SDS011;64571;47.512;19.054;2023-06-24T07:31:40;3.58;;;1.30;;
75890;SDS011;64571;47.512;19.054;2023-06-24T07:34:43;4.20;;;1.40;;
75890;SDS011;64571;47.512;19.054;2023-06-24T07:37:45;5.40;;;2.45;;
75890;SDS011;64571;47.512;19.054;2023-06-24T07:40:48;5.47;;;2.60;;
75890;SDS011;64571;47.512;19.054;2023-06-24T07:43:50;7.22;;;2.05;;
75890;SDS011;64571;47.512;19.054;2023-06-24T07:46:53;17.37;;;2.42;;
75890;SDS011;64571;47.512;19.054;2023-06-24T07:49:56;7.65;;;3.92;;
75890;SDS011;64571;47.512;19.054;2023-06-24T07:52:58;4.65;;;2.10;;
75890;SDS011;64571;47.512;19.054;2023-06-24T07:56:01;4.07;;;1.80;;
75890;SDS011;64571;47.512;19.054;2023-06-24T07:59:03;3.83;;;1.83;;
75890;SDS011;64571;47.512;19.054;2023-06-24T08:02:06;5.12;;;2.70;;
75890;SDS011;64571;47.512;19.054;2023-06-24T08:05:09;4.07;;;1.77;;
75890;SDS011;64571;47.512;19.054;2023-06-24T08:08:11;6.47;;;3.35;;
75890;SDS011;64571;47.512;19.054;2023-06-24T08:11:14;5.27;;;1.97;;
75890;SDS011;64571;47.512;19.054;2023-06-24T08:14:16;4.20;;;1.92;;
75890;SDS011;64571;47.512;19.054;2023-06-24T08:17:19;5.28;;;2.20;;
75890;SDS011;64571;47.512;19.054;2023-06-24T08:20:22;5.78;;;2.00;;
75890;SDS011;64571;47.512;19.054;2023-06-24T08:23:25;5.35;;;2.92;;
75890;SDS011;64571;47.512;19.054;2023-06-24T08:26:28;5.10;;;2.67;;
75890;SDS011;64571;47.512;19.054;2023-06-24T08:29:31;5.07;;;2.15;;
75890;SDS011;64571;47.512;19.054;2023-06-24T08:32:33;4.87;;;2.17;;
75890;SDS011;64571;47.512;19.054;2023-06-24T08:35:36;4.25;;;1.98;;
75890;SDS011;64571;47.512;19.054;2023-06-24T08:38:38;4.72;;;2.17;;
75890;SDS011;64571;47.512;19.054;2023-06-24T08:41:41;5.47;;;2.53;;
75890;SDS011;64571;47.512;19.054;2023-06-24T08:44:46;5.12;;;2.87;;
75890;SDS011;64571;47.512;19.054;2023-06-24T08:47:49;6.80;;;2.50;;
75890;SDS011;64571;47.512;19.054;2023-06-24T08:50:53;4.60;;;2.35;;
75890;SDS011;64571;47.512;19.054;2023-06-24T08:53:59;5.93;;;2.58;;
75890;SDS011;64571;47.512;19.054;2023-06-24T08:57:03;4.90;;;2.20;;
75890;SDS011;64571;47.512;19.054;2023-06-24T09:00:11;4.78;;;2.47;;
75890;SDS011;64571;47.512;19.054;2023-06-24T09:03:14;4.45;;;2.58;;
75890;SDS011;64571;47.512;19.054;2023-06-24T09:06:17;4.50;;;2.50;;
75890;SDS011;64571;47.512;19.054;2023-06-24T09:09:20;5.53;;;3.00;;
75890;SDS011;64571;47.512;19.054;2023-06-24T09:12:24;5.40;;;3.00;;
75890;SDS011;64571;47.512;19.054;2023-06-24T09:15:34;6.20;;;2.97;;
75890;SDS011;64571;47.512;19.054;2023-06-24T09:18:38;5.28;;;2.40;;
75890;SDS011;64571;47.512;19.054;2023-06-24T09:21:40;5.30;;;2.87;;
75890;SDS011;64571;47.512;19.054;2023-06-24T09:24:48;4.45;;;2.22;;
75890;SDS011;64571;47.512;19.054;2023-06-24T09:27:51;4.57;;;2.20;;
75890;SDS011;64571;47.512;19.054;2023-06-24T09:31:07;5.32;;;2.37;;
75890;SDS011;64571;47.512;19.054;2023-06-24T09:34:21;4.05;;;2.15;;
75890;SDS011;64571;47.512;19.054;2023-06-24T09:37:24;4.40;;;2.03;;
75890;SDS011;64571;47.512;19.054;2023-06-24T09:40:34;4.47;;;2.12;;
75890;SDS011;64571;47.512;19.054;2023-06-24T09:43:39;5.47;;;2.23;;
75890;SDS011;64571;47.512;19.054;2023-06-24T09:46:44;4.60;;;2.15;;
75890;SDS011;64571;47.512;19.054;2023-06-24T09:49:48;5.25;;;2.45;;
75890;SDS011;64571;47.512;19.054;2023-06-24T09:52:50;5.37;;;2.25;;
75890;SDS011;64571;47.512;19.054;2023-06-24T09:55:59;5.97;;;2.22;;
75890;SDS011;64571;47.512;19.054;2023-06-24T09:59:03;5.20;;;2.47;;
75890;SDS011;64571;47.512;19.054;2023-06-24T10:02:07;5.00;;;2.30;;
75890;SDS011;64571;47.512;19.054;2023-06-24T10:05:15;6.25;;;2.67;;
75890;SDS011;64571;47.512;19.054;2023-06-24T10:08:17;6.12;;;2.28;;
75890;SDS011;64571;47.512;19.054;2023-06-24T10:11:21;4.95;;;2.80;;
75890;SDS011;64571;47.512;19.054;2023-06-24T10:14:23;5.27;;;2.27;;
75890;SDS011;64571;47.512;19.054;2023-06-24T10:17:26;6.93;;;2.90;;
75890;SDS011;64571;47.512;19.054;2023-06-24T10:20:29;6.37;;;3.35;;
75890;SDS011;64571;47.512;19.054;2023-06-24T10:26:49;4.82;;;2.65;;
75890;SDS011;64571;47.512;19.054;2023-06-24T10:29:53;5.40;;;2.50;;
75890;SDS011;64571;47.512;19.054;2023-06-24T10:33:00;5.60;;;2.50;;
75890;SDS011;64571;47.512;19.054;2023-06-24T10:36:03;5.35;;;3.20;;
75890;SDS011;64571;47.512;19.054;2023-06-24T10:39:05;7.12;;;2.72;;
75890;SDS011;64571;47.512;19.054;2023-06-24T10:42:27;5.87;;;2.60;;
75890;SDS011;64571;47.512;19.054;2023-06-24T10:45:39;4.77;;;2.17;;
75890;SDS011;64571;47.512;19.054;2023-06-24T10:48:52;5.80;;;2.20;;
75890;SDS011;64571;47.512;19.054;2023-06-24T10:51:54;5.45;;;2.28;;
75890;SDS011;64571;47.512;19.054;2023-06-24T10:54:57;7.57;;;3.72;;
75890;SDS011;64571;47.512;19.054;2023-06-24T10:58:07;7.57;;;3.05;;
75890;SDS011;64571;47.512;19.054;2023-06-24T11:01:14;5.63;;;3.17;;
75890;SDS011;64571;47.512;19.054;2023-06-24T11:04:17;6.65;;;2.70;;
75890;SDS011;64571;47.512;19.054;2023-06-24T11:07:24;4.97;;;2.40;;
75890;SDS011;64571;47.512;19.054;2023-06-24T11:10:28;4.12;;;2.15;;
75890;SDS011;64571;47.512;19.054;2023-06-24T11:13:33;4.68;;;2.35;;
75890;SDS011;64571;47.512;19.054;2023-06-24T11:16:35;5.70;;;2.73;;
75890;SDS011;64571;47.512;19.054;2023-06-24T11:19:41;5.95;;;2.30;;
75890;SDS011;64571;47.512;19.054;2023-06-24T11:22:45;4.57;;;2.00;;
75890;SDS011;64571;47.512;19.054;2023-06-24T11:25:48;4.35;;;2.10;;
75890;SDS011;64571;47.512;19.054;2023-06-24T11:28:50;4.40;;;2.20;;
75890;SDS011;64571;47.512;19.054;2023-06-24T11:31:53;4.90;;;2.80;;
75890;SDS011;64571;47.512;19.054;2023-06-24T11:34:56;5.50;;;2.70;;
75890;SDS011;64571;47.512;19.054;2023-06-24T11:37:58;4.72;;;2.65;;
75890;SDS011;64571;47.512;19.054;2023-06-24T11:41:01;4.72;;;2.40;;
75890;SDS011;64571;47.512;19.054;2023-06-24T11:44:04;6.30;;;2.30;;
75890;SDS011;64571;47.512;19.054;2023-06-24T11:47:08;4.40;;;2.20;;
75890;SDS011;64571;47.512;19.054;2023-06-24T11:50:11;6.10;;;2.55;;
75890;SDS011;64571;47.512;19.054;2023-06-24T11:53:13;6.35;;;2.80;;
75890;SDS011;64571;47.512;19.054;2023-06-24T11:56:16;4.70;;;2.45;;
75890;SDS011;64571;47.512;19.054;2023-06-24T11:59:19;5.15;;;2.60;;
75890;SDS011;64571;47.512;19.054;2023-06-24T12:02:24;4.47;;;2.43;;
75890;SDS011;64571;47.512;19.054;2023-06-24T12:05:30;6.20;;;2.85;;
75890;SDS011;64571;47.512;19.054;2023-06-24T12:08:34;5.65;;;2.40;;
75890;SDS011;64571;47.512;19.054;2023-06-24T12:11:53;4.30;;;2.42;;
75890;SDS011;64571;47.512;19.054;2023-06-24T12:14:55;8.93;;;2.40;;
75890;SDS011;64571;47.512;19.054;2023-06-24T12:17:58;6.30;;;2.70;;
75890;SDS011;64571;47.512;19.054;2023-06-24T12:21:01;5.05;;;2.70;;
75890;SDS011;64571;47.512;19.054;2023-06-24T12:24:04;4.95;;;2.30;;
75890;SDS011;64571;47.512;19.054;2023-06-24T12:27:07;5.12;;;2.58;;
75890;SDS011;64571;47.512;19.054;2023-06-24T12:30:11;4.03;;;2.30;;
75890;SDS011;64571;47.512;19.054;2023-06-24T12:33:14;5.70;;;2.70;;
75890;SDS011;64571;47.512;19.054;2023-06-24T12:36:21;5.28;;;2.80;;
75890;SDS011;64571;47.512;19.054;2023-06-24T12:39:24;8.93;;;2.33;;
75890;SDS011;64571;47.512;19.054;2023-06-24T12:42:27;4.20;;;2.30;;
75890;SDS011;64571;47.512;19.054;2023-06-24T12:45:30;4.60;;;2.40;;
75890;SDS011;64571;47.512;19.054;2023-06-24T12:48:33;4.70;;;2.23;;
75890;SDS011;64571;47.512;19.054;2023-06-24T12:51:35;4.30;;;2.40;;
75890;SDS011;64571;47.512;19.054;2023-06-24T12:54:38;4.57;;;2.55;;
75890;SDS011;64571;47.512;19.054;2023-06-24T12:57:40;4.40;;;2.33;;
75890;SDS011;64571;47.512;19.054;2023-06-24T13:00:43;5.80;;;2.30;;
75890;SDS011;64571;47.512;19.054;2023-06-24T13:03:46;4.60;;;2.67;;
75890;SDS011;64571;47.512;19.054;2023-06-24T13:06:48;4.90;;;2.37;;
75890;SDS011;64571;47.512;19.054;2023-06-24T13:09:51;4.65;;;2.47;;
75890;SDS011;64571;47.512;19.054;2023-06-24T13:12:54;4.62;;;2.78;;
75890;SDS011;64571;47.512;19.054;2023-06-24T13:15:57;6.95;;;2.47;;
75890;SDS011;64571;47.512;19.054;2023-06-24T13:19:00;4.97;;;2.43;;
75890;SDS011;64571;47.512;19.054;2023-06-24T13:22:02;6.37;;;2.70;;
75890;SDS011;64571;47.512;19.054;2023-06-24T13:25:05;5.43;;;2.50;;
75890;SDS011;64571;47.512;19.054;2023-06-24T13:28:08;4.95;;;2.70;;
75890;SDS011;64571;47.512;19.054;2023-06-24T13:31:11;6.00;;;2.72;;
75890;SDS011;64571;47.512;19.054;2023-06-24T13:34:18;4.93;;;2.30;;
75890;SDS011;64571;47.512;19.054;2023-06-24T13:37:21;4.70;;;2.85;;
75890;SDS011;64571;47.512;19.054;2023-06-24T13:40:24;6.12;;;3.05;;
75890;SDS011;64571;47.512;19.054;2023-06-24T13:43:26;4.90;;;3.03;;
75890;SDS011;64571;47.512;19.054;2023-06-24T13:46:29;5.00;;;3.60;;
75890;SDS011;64571;47.512;19.054;2023-06-24T13:49:33;6.30;;;3.37;;
75890;SDS011;64571;47.512;19.054;2023-06-24T13:52:35;8.80;;;3.17;;
75890;SDS011;64571;47.512;19.054;2023-06-24T13:55:38;5.25;;;3.40;;
75890;SDS011;64571;47.512;19.054;2023-06-24T13:58:40;6.90;;;3.22;;
75890;SDS011;64571;47.512;19.054;2023-06-24T14:01:43;4.85;;;3.08;;
75890;SDS011;64571;47.512;19.054;2023-06-24T14:04:46;5.20;;;3.50;;
75890;SDS011;64571;47.512;19.054;2023-06-24T14:07:50;5.32;;;3.65;;
75890;SDS011;64571;47.512;19.054;2023-06-24T14:10:52;5.43;;;3.83;;
75890;SDS011;64571;47.512;19.054;2023-06-24T14:13:55;7.57;;;3.92;;
75890;SDS011;64571;47.512;19.054;2023-06-24T14:16:58;5.85;;;3.78;;
75890;SDS011;64571;47.512;19.054;2023-06-24T14:20:00;7.73;;;3.87;;
75890;SDS011;64571;47.512;19.054;2023-06-24T14:23:03;5.53;;;4.22;;
75890;SDS011;64571;47.512;19.054;2023-06-24T14:26:06;7.28;;;3.90;;
75890;SDS011;64571;47.512;19.054;2023-06-24T14:29:09;7.70;;;4.60;;
75890;SDS011;64571;47.512;19.054;2023-06-24T14:32:11;9.65;;;3.83;;
75890;SDS011;64571;47.512;19.054;2023-06-24T14:35:14;8.37;;;4.17;;
75890;SDS011;64571;47.512;19.054;2023-06-24T14:38:16;6.12;;;4.25;;
75890;SDS011;64571;47.512;19.054;2023-06-24T14:41:19;6.03;;;4.10;;
75890;SDS011;64571;47.512;19.054;2023-06-24T14:44:22;5.78;;;4.05;;
75890;SDS011;64571;47.512;19.054;2023-06-24T14:47:24;6.28;;;4.28;;
75890;SDS011;64571;47.512;19.054;2023-06-24T14:50:27;8.53;;;4.03;;
75890;SDS011;64571;47.512;19.054;2023-06-24T14:53:30;7.55;;;3.92;;
75890;SDS011;64571;47.512;19.054;2023-06-24T14:56:33;5.93;;;4.03;;
75890;SDS011;64571;47.512;19.054;2023-06-24T14:59:35;6.20;;;4.57;;
75890;SDS011;64571;47.512;19.054;2023-06-24T15:02:38;8.30;;;4.05;;
75890;SDS011;64571;47.512;19.054;2023-06-24T15:05:41;7.80;;;4.60;;
75890;SDS011;64571;47.512;19.054;2023-06-24T15:08:43;7.90;;;4.00;;
75890;SDS011;64571;47.512;19.054;2023-06-24T15:11:46;5.85;;;4.00;;
75890;SDS011;64571;47.512;19.054;2023-06-24T15:14:48;7.37;;;4.18;;
75890;SDS011;64571;47.512;19.054;2023-06-24T15:17:51;5.97;;;4.78;;
75890;SDS011;64571;47.512;19.054;2023-06-24T15:20:54;7.90;;;4.50;;
75890;SDS011;64571;47.512;19.054;2023-06-24T15:23:56;7.62;;;4.60;;
75890;SDS011;64571;47.512;19.054;2023-06-24T15:26:59;6.12;;;4.40;;
75890;SDS011;64571;47.512;19.054;2023-06-24T15:30:02;6.00;;;4.15;;
75890;SDS011;64571;47.512;19.054;2023-06-24T15:33:05;6.18;;;4.60;;
75890;SDS011;64571;47.512;19.054;2023-06-24T15:36:07;6.90;;;4.60;;
75890;SDS011;64571;47.512;19.054;2023-06-24T15:39:10;5.47;;;3.95;;
75890;SDS011;64571;47.512;19.054;2023-06-24T15:42:13;6.00;;;3.95;;
75890;SDS011;64571;47.512;19.054;2023-06-24T15:45:16;6.75;;;4.78;;
75890;SDS011;64571;47.512;19.054;2023-06-24T15:48:19;6.80;;;4.35;;
75890;SDS011;64571;47.512;19.054;2023-06-24T15:51:21;6.83;;;3.93;;
75890;SDS011;64571;47.512;19.054;2023-06-24T15:54:24;7.90;;;4.25;;
75890;SDS011;64571;47.512;19.054;2023-06-24T15:57:26;7.12;;;4.15;;
75890;SDS011;64571;47.512;19.054;2023-06-24T16:00:29;6.35;;;4.47;;
75890;SDS011;64571;47.512;19.054;2023-06-24T16:03:32;6.22;;;4.05;;
75890;SDS011;64571;47.512;19.054;2023-06-24T16:07:06;6.93;;;3.72;;
75890;SDS011;64571;47.512;19.054;2023-06-24T16:10:09;6.78;;;4.43;;
75890;SDS011;64571;47.512;19.054;2023-06-24T16:13:12;5.87;;;4.03;;
75890;SDS011;64571;47.512;19.054;2023-06-24T16:16:15;13.48;;;9.23;;
75890;SDS011;64571;47.512;19.054;2023-06-24T16:19:18;6.33;;;4.57;;
75890;SDS011;64571;47.512;19.054;2023-06-24T16:22:21;7.37;;;4.68;;
75890;SDS011;64571;47.512;19.054;2023-06-24T16:25:24;7.68;;;4.35;;
75890;SDS011;64571;47.512;19.054;2023-06-24T16:28:26;7.97;;;4.82;;
75890;SDS011;64571;47.512;19.054;2023-06-24T16:31:29;8.13;;;4.93;;
75890;SDS011;64571;47.512;19.054;2023-06-24T16:34:32;9.80;;;5.10;;
75890;SDS011;64571;47.512;19.054;2023-06-24T16:37:34;8.20;;;4.70;;
75890;SDS011;64571;47.512;19.054;2023-06-24T16:40:37;7.65;;;5.30;;
75890;SDS011;64571;47.512;19.054;2023-06-24T16:43:40;10.57;;;5.10;;
75890;SDS011;64571;47.512;19.054;2023-06-24T16:46:42;7.30;;;4.40;;
75890;SDS011;64571;47.512;19.054;2023-06-24T16:49:45;8.67;;;4.83;;
75890;SDS011;64571;47.512;19.054;2023-06-24T16:52:50;7.68;;;4.95;;
75890;SDS011;64571;47.512;19.054;2023-06-24T16:55:53;7.35;;;4.45;;
75890;SDS011;64571;47.512;19.054;2023-06-24T16:58:55;9.00;;;4.60;;
75890;SDS011;64571;47.512;19.054;2023-06-24T17:01:58;8.93;;;4.72;;
75890;SDS011;64571;47.512;19.054;2023-06-24T17:05:01;7.00;;;4.60;;
75890;SDS011;64571;47.512;19.054;2023-06-24T17:08:04;9.02;;;5.05;;
75890;SDS011;64571;47.512;19.054;2023-06-24T17:11:08;8.38;;;4.65;;
75890;SDS011;64571;47.512;19.054;2023-06-24T17:14:10;7.62;;;4.45;;
75890;SDS011;64571;47.512;19.054;2023-06-24T17:17:13;7.40;;;4.68;;
75890;SDS011;64571;47.512;19.054;2023-06-24T17:20:16;8.27;;;5.00;;
75890;SDS011;64571;47.512;19.054;2023-06-24T17:23:18;7.07;;;4.70;;
75890;SDS011;64571;47.512;19.054;2023-06-24T17:26:21;10.63;;;5.45;;
75890;SDS011;64571;47.512;19.054;2023-06-24T17:29:24;8.20;;;5.00;;
75890;SDS011;64571;47.512;19.054;2023-06-24T17:32:27;8.00;;;5.20;;
75890;SDS011;64571;47.512;19.054;2023-06-24T17:35:29;9.73;;;4.93;;
75890;SDS011;64571;47.512;19.054;2023-06-24T17:38:32;7.60;;;5.20;;
75890;SDS011;64571;47.512;19.054;2023-06-24T17:41:34;8.55;;;4.80;;
75890;SDS011;64571;47.512;19.054;2023-06-24T17:44:37;9.20;;;4.90;;
75890;SDS011;64571;47.512;19.054;2023-06-24T17:47:40;8.48;;;5.28;;
75890;SDS011;64571;47.512;19.054;2023-06-24T17:50:43;9.97;;;6.27;;
75890;SDS011;64571;47.512;19.054;2023-06-24T17:53:45;7.28;;;5.32;;
75890;SDS011;64571;47.512;19.054;2023-06-24T17:56:48;7.70;;;4.40;;
75890;SDS011;64571;47.512;19.054;2023-06-24T17:59:50;7.35;;;5.25;;
75890;SDS011;64571;47.512;19.054;2023-06-24T18:02:53;8.02;;;5.00;;
75890;SDS011;64571;47.512;19.054;2023-06-24T18:05:56;7.17;;;4.13;;
75890;SDS011;64571;47.512;19.054;2023-06-24T18:08:58;6.87;;;4.45;;
75890;SDS011;64571;47.512;19.054;2023-06-24T18:12:01;9.32;;;4.97;;
75890;SDS011;64571;47.512;19.054;2023-06-24T18:15:04;9.63;;;5.55;;
75890;SDS011;64571;47.512;19.054;2023-06-24T18:18:07;8.15;;;5.05;;
75890;SDS011;64571;47.512;19.054;2023-06-24T18:21:10;8.17;;;5.57;;
75890;SDS011;64571;47.512;19.054;2023-06-24T18:24:14;7.70;;;5.10;;
75890;SDS011;64571;47.512;19.054;2023-06-24T18:27:16;7.30;;;4.68;;
75890;SDS011;64571;47.512;19.054;2023-06-24T18:30:20;8.65;;;6.03;;